sensor_id;sensor_type;location;lat;lon;timestamp;pressure;altitude;pressure_sealevel;temperature;humidity
74524;BME280;63074;44.696;10.358;2022-10-28T00:00:32;101264.38;;;15.29;100.00
74524;BME280;63074;44.696;10.358;2022-10-28T00:03:01;101266.34;;;15.33;100.00
74524;BME280;63074;44.696;10.358;2022-10-28T00:05:27;101271.69;;;15.16;100.00
74524;BME280;63074;44.696;10.358;2022-10-28T00:07:53;101281.00;;;14.97;100.00
74524;BME280;63074;44.696;10.358;2022-10-28T00:10:18;101273.56;;;15.04;100.00
74524;BME280;63074;44.696;10.358;2022-10-28T00:12:44;101280.16;;;14.97;100.00
74524;BME280;63074;44.696;10.358;2022-10-28T00:15:09;101283.69;;;14.97;100.00
74524;BME280;63074;44.696;10.358;2022-10-28T00:17:36;101276.03;;;15.06;100.00
74524;BME280;63074;44.696;10.358;2022-10-28T00:20:02;101274.53;;;14.98;100.00
74524;BME280;63074;44.696;10.358;2022-10-28T00:22:27;101268.97;;;15.05;100.00
74524;BME280;63074;44.696;10.358;2022-10-28T00:24:53;101270.63;;;14.94;100.00
74524;BME280;63074;44.696;10.358;2022-10-28T00:27:18;101279.69;;;14.88;100.00
74524;BME280;63074;44.696;10.358;2022-10-28T00:29:43;101275.44;;;14.80;100.00
74524;BME280;63074;44.696;10.358;2022-10-28T00:32:09;101271.53;;;14.76;100.00
74524;BME280;63074;44.696;10.358;2022-10-28T00:34:34;101274.69;;;14.73;100.00
74524;BME280;63074;44.696;10.358;2022-10-28T00:37:00;101269.75;;;14.59;100.00
74524;BME280;63074;44.696;10.358;2022-10-28T00:39:26;101270.44;;;14.54;100.00
74524;BME280;63074;44.696;10.358;2022-10-28T00:41:57;101279.59;;;14.41;100.00
74524;BME280;63074;44.696;10.358;2022-10-28T00:47:05;101271.81;;;14.45;100.00
74524;BME280;63074;44.696;10.358;2022-10-28T00:49:35;101271.13;;;14.49;100.00
74524;BME280;63074;44.696;10.358;2022-10-28T00:52:12;101266.44;;;14.57;100.00
74524;BME280;63074;44.696;10.358;2022-10-28T00:54:41;101266.69;;;14.55;100.00
74524;BME280;63074;44.696;10.358;2022-10-28T00:57:12;101269.38;;;14.55;100.00
74524;BME280;63074;44.696;10.358;2022-10-28T00:59:43;101269.16;;;14.57;100.00
74524;BME280;63074;44.696;10.358;2022-10-28T01:02:10;101261.81;;;14.45;100.00
74524;BME280;63074;44.696;10.358;2022-10-28T01:04:36;101259.16;;;14.57;100.00
74524;BME280;63074;44.696;10.358;2022-10-28T01:07:02;101253.19;;;14.67;100.00
74524;BME280;63074;44.696;10.358;2022-10-28T01:09:27;101257.59;;;14.49;100.00
74524;BME280;63074;44.696;10.358;2022-10-28T01:12:16;101264.81;;;14.56;100.00
74524;BME280;63074;44.696;10.358;2022-10-28T01:15:32;101259.41;;;14.56;100.00
74524;BME280;63074;44.696;10.358;2022-10-28T01:23:38;101253.38;;;14.42;100.00
74524;BME280;63074;44.696;10.358;2022-10-28T01:26:28;101249.84;;;14.41;100.00
74524;BME280;63074;44.696;10.358;2022-10-28T01:31:38;101260.44;;;14.43;100.00
74524;BME280;63074;44.696;10.358;2022-10-28T01:42:06;101254.31;;;14.47;100.00
74524;BME280;63074;44.696;10.358;2022-10-28T01:45:23;101251.59;;;14.47;100.00
74524;BME280;63074;44.696;10.358;2022-10-28T01:47:33;101253.75;;;14.57;100.00
74524;BME280;63074;44.696;10.358;2022-10-28T01:50:14;101244.28;;;14.36;100.00
74524;BME280;63074;44.696;10.358;2022-10-28T01:52:43;101245.28;;;14.42;100.00
74524;BME280;63074;44.696;10.358;2022-10-28T01:55:16;101242.56;;;14.42;100.00
74524;BME280;63074;44.696;10.358;2022-10-28T01:57:44;101246.78;;;14.49;100.00
74524;BME280;63074;44.696;10.358;2022-10-28T02:00:12;101243.91;;;14.33;100.00
74524;BME280;63074;44.696;10.358;2022-10-28T02:02:38;101245.47;;;14.40;100.00
74524;BME280;63074;44.696;10.358;2022-10-28T02:08:20;101253.38;;;14.53;100.00
74524;BME280;63074;44.696;10.358;2022-10-28T02:11:08;101245.84;;;14.44;100.00
74524;BME280;63074;44.696;10.358;2022-10-28T02:16:26;101247.63;;;14.20;100.00
74524;BME280;63074;44.696;10.358;2022-10-28T02:27:04;101247.22;;;14.35;100.00
74524;BME280;63074;44.696;10.358;2022-10-28T02:29:38;101239.84;;;14.42;100.00
74524;BME280;63074;44.696;10.358;2022-10-28T02:32:15;101242.06;;;14.45;100.00
74524;BME280;63074;44.696;10.358;2022-10-28T02:34:46;101244.31;;;14.48;100.00
74524;BME280;63074;44.696;10.358;2022-10-28T02:37:19;101244.53;;;14.46;100.00
74524;BME280;63074;44.696;10.358;2022-10-28T02:39:52;101231.97;;;14.52;100.00
74524;BME280;63074;44.696;10.358;2022-10-28T02:42:26;101239.06;;;14.65;100.00
74524;BME280;63074;44.696;10.358;2022-10-28T02:45:00;101234.47;;;14.77;100.00
74524;BME280;63074;44.696;10.358;2022-10-28T02:47:32;101233.44;;;14.66;100.00
74524;BME280;63074;44.696;10.358;2022-10-28T02:50:04;101237.16;;;14.53;100.00
74524;BME280;63074;44.696;10.358;2022-10-28T02:52:32;101238.22;;;14.52;100.00
74524;BME280;63074;44.696;10.358;2022-10-28T02:55:00;101240.22;;;14.57;100.00
74524;BME280;63074;44.696;10.358;2022-10-28T02:57:34;101233.69;;;14.35;100.00
74524;BME280;63074;44.696;10.358;2022-10-28T03:00:06;101242.03;;;14.33;100.00
74524;BME280;63074;44.696;10.358;2022-10-28T03:02:32;101240.38;;;14.32;100.00
74524;BME280;63074;44.696;10.358;2022-10-28T03:04:58;101241.31;;;14.26;100.00
74524;BME280;63074;44.696;10.358;2022-10-28T03:07:23;101239.97;;;14.17;100.00
74524;BME280;63074;44.696;10.358;2022-10-28T03:09:48;101242.78;;;14.10;100.00
74524;BME280;63074;44.696;10.358;2022-10-28T03:12:14;101238.91;;;14.18;100.00
74524;BME280;63074;44.696;10.358;2022-10-28T03:14:41;101247.97;;;14.12;100.00
74524;BME280;63074;44.696;10.358;2022-10-28T03:17:07;101246.44;;;14.16;100.00
74524;BME280;63074;44.696;10.358;2022-10-28T03:19:32;101252.44;;;14.18;100.00
74524;BME280;63074;44.696;10.358;2022-10-28T03:21:58;101251.84;;;14.16;100.00
74524;BME280;63074;44.696;10.358;2022-10-28T03:24:23;101249.13;;;14.16;100.00
74524;BME280;63074;44.696;10.358;2022-10-28T03:26:49;101247.03;;;14.18;100.00
74524;BME280;63074;44.696;10.358;2022-10-28T03:29:14;101245.50;;;14.22;100.00
74524;BME280;63074;44.696;10.358;2022-10-28T03:31:39;101247.75;;;14.25;100.00
74524;BME280;63074;44.696;10.358;2022-10-28T03:34:05;101236.13;;;14.25;100.00
74524;BME280;63074;44.696;10.358;2022-10-28T03:36:30;101239.50;;;14.20;100.00
74524;BME280;63074;44.696;10.358;2022-10-28T03:38:56;101247.03;;;14.18;100.00
74524;BME280;63074;44.696;10.358;2022-10-28T03:41:21;101243.63;;;14.23;100.00
74524;BME280;63074;44.696;10.358;2022-10-28T03:43:46;101242.44;;;14.18;100.00
74524;BME280;63074;44.696;10.358;2022-10-28T03:46:12;101251.16;;;14.20;100.00
74524;BME280;63074;44.696;10.358;2022-10-28T03:48:37;101250.78;;;14.17;100.00
74524;BME280;63074;44.696;10.358;2022-10-28T03:51:03;101247.47;;;14.15;100.00
74524;BME280;63074;44.696;10.358;2022-10-28T03:53:28;101251.50;;;14.12;100.00
74524;BME280;63074;44.696;10.358;2022-10-28T03:55:55;101253.84;;;14.09;100.00
74524;BME280;63074;44.696;10.358;2022-10-28T03:58:21;101246.03;;;14.01;100.00
74524;BME280;63074;44.696;10.358;2022-10-28T04:00:50;101247.81;;;14.07;100.00
74524;BME280;63074;44.696;10.358;2022-10-28T04:03:17;101244.66;;;14.10;100.00
74524;BME280;63074;44.696;10.358;2022-10-28T04:05:43;101246.50;;;13.98;100.00
74524;BME280;63074;44.696;10.358;2022-10-28T04:08:09;101244.38;;;14.00;100.00
74524;BME280;63074;44.696;10.358;2022-10-28T04:10:35;101246.84;;;14.01;100.00
74524;BME280;63074;44.696;10.358;2022-10-28T04:13:01;101250.91;;;13.92;100.00
74524;BME280;63074;44.696;10.358;2022-10-28T04:15:27;101249.25;;;13.79;100.00
74524;BME280;63074;44.696;10.358;2022-10-28T04:17:53;101250.38;;;13.72;100.00
74524;BME280;63074;44.696;10.358;2022-10-28T04:20:18;101248.91;;;13.88;100.00
74524;BME280;63074;44.696;10.358;2022-10-28T04:22:43;101242.81;;;13.92;100.00
74524;BME280;63074;44.696;10.358;2022-10-28T04:25:09;101248.59;;;13.96;100.00
74524;BME280;63074;44.696;10.358;2022-10-28T04:27:35;101245.16;;;13.89;100.00
74524;BME280;63074;44.696;10.358;2022-10-28T04:30:00;101241.09;;;13.98;100.00
74524;BME280;63074;44.696;10.358;2022-10-28T04:32:26;101244.31;;;13.88;100.00
74524;BME280;63074;44.696;10.358;2022-10-28T04:34:51;101244.31;;;13.88;100.00
74524;BME280;63074;44.696;10.358;2022-10-28T04:37:17;101242.09;;;13.85;100.00
74524;BME280;63074;44.696;10.358;2022-10-28T04:39:42;101242.09;;;13.85;100.00
74524;BME280;63074;44.696;10.358;2022-10-28T04:42:07;101252.63;;;13.75;100.00
74524;BME280;63074;44.696;10.358;2022-10-28T04:44:33;101239.47;;;13.78;100.00
74524;BME280;63074;44.696;10.358;2022-10-28T04:47:04;101241.50;;;13.65;100.00
74524;BME280;63074;44.696;10.358;2022-10-28T04:49:31;101240.19;;;13.56;100.00
74524;BME280;63074;44.696;10.358;2022-10-28T04:51:57;101245.28;;;13.45;100.00
74524;BME280;63074;44.696;10.358;2022-10-28T04:54:22;101244.75;;;13.55;100.00
74524;BME280;63074;44.696;10.358;2022-10-28T04:56:48;101240.69;;;13.64;100.00
74524;BME280;63074;44.696;10.358;2022-10-28T04:59:13;101242.41;;;13.59;100.00
74524;BME280;63074;44.696;10.358;2022-10-28T05:01:38;101239.25;;;13.62;100.00
74524;BME280;63074;44.696;10.358;2022-10-28T05:04:05;101232.59;;;13.64;100.00
74524;BME280;63074;44.696;10.358;2022-10-28T05:06:30;101248.28;;;13.56;100.00
74524;BME280;63074;44.696;10.358;2022-10-28T05:08:56;101241.16;;;13.43;100.00
74524;BME280;63074;44.696;10.358;2022-10-28T05:11:21;101244.81;;;13.67;100.00
74524;BME280;63074;44.696;10.358;2022-10-28T05:13:47;101250.28;;;13.60;100.00
74524;BME280;63074;44.696;10.358;2022-10-28T05:16:12;101231.94;;;13.50;100.00
74524;BME280;63074;44.696;10.358;2022-10-28T05:18:37;101227.72;;;13.55;100.00
74524;BME280;63074;44.696;10.358;2022-10-28T05:21:03;101228.47;;;13.62;100.00
74524;BME280;63074;44.696;10.358;2022-10-28T05:23:28;101227.97;;;13.53;100.00
74524;BME280;63074;44.696;10.358;2022-10-28T05:25:54;101230.72;;;13.46;100.00
74524;BME280;63074;44.696;10.358;2022-10-28T05:28:19;101234.03;;;13.48;100.00
74524;BME280;63074;44.696;10.358;2022-10-28T05:30:45;101227.72;;;13.55;100.00
74524;BME280;63074;44.696;10.358;2022-10-28T05:33:13;101223.47;;;13.47;100.00
74524;BME280;63074;44.696;10.358;2022-10-28T05:35:38;101229.50;;;13.61;100.00
74524;BME280;63074;44.696;10.358;2022-10-28T05:38:04;101228.22;;;13.63;100.00
74524;BME280;63074;44.696;10.358;2022-10-28T05:40:30;101237.34;;;13.50;100.00
74524;BME280;63074;44.696;10.358;2022-10-28T05:43:00;101240.94;;;13.44;100.00
74524;BME280;63074;44.696;10.358;2022-10-28T05:45:26;101240.47;;;13.29;100.00
74524;BME280;63074;44.696;10.358;2022-10-28T05:47:52;101240.03;;;13.32;100.00
74524;BME280;63074;44.696;10.358;2022-10-28T05:50:18;101242.88;;;13.37;100.00
74524;BME280;63074;44.696;10.358;2022-10-28T05:52:52;101251.72;;;13.44;100.00
74524;BME280;63074;44.696;10.358;2022-10-28T05:55:19;101261.53;;;13.57;100.00
74524;BME280;63074;44.696;10.358;2022-10-28T05:57:46;101254.59;;;13.49;100.00
74524;BME280;63074;44.696;10.358;2022-10-28T06:00:12;101258.28;;;13.55;100.00
74524;BME280;63074;44.696;10.358;2022-10-28T06:02:38;101261.41;;;13.70;100.00
74524;BME280;63074;44.696;10.358;2022-10-28T06:05:04;101251.56;;;13.76;100.00
74524;BME280;63074;44.696;10.358;2022-10-28T06:07:29;101254.41;;;13.81;100.00
74524;BME280;63074;44.696;10.358;2022-10-28T06:09:55;101253.75;;;13.85;100.00
74524;BME280;63074;44.696;10.358;2022-10-28T06:12:20;101260.53;;;13.88;100.00
74524;BME280;63074;44.696;10.358;2022-10-28T06:14:45;101256.69;;;13.96;100.00
74524;BME280;63074;44.696;10.358;2022-10-28T06:17:11;101249.63;;;14.13;100.00
74524;BME280;63074;44.696;10.358;2022-10-28T06:19:36;101251.28;;;14.14;100.00
74524;BME280;63074;44.696;10.358;2022-10-28T06:22:02;101259.53;;;14.31;100.00
74524;BME280;63074;44.696;10.358;2022-10-28T06:24:27;101257.66;;;14.31;100.00
74524;BME280;63074;44.696;10.358;2022-10-28T06:26:52;101255.47;;;14.40;100.00
74524;BME280;63074;44.696;10.358;2022-10-28T06:29:18;101259.13;;;14.45;100.00
74524;BME280;63074;44.696;10.358;2022-10-28T06:31:45;101260.13;;;14.33;100.00
74524;BME280;63074;44.696;10.358;2022-10-28T06:34:12;101263.06;;;14.31;100.00
74524;BME280;63074;44.696;10.358;2022-10-28T06:36:38;101267.78;;;14.36;100.00
74524;BME280;63074;44.696;10.358;2022-10-28T06:39:04;101267.34;;;14.39;100.00
74524;BME280;63074;44.696;10.358;2022-10-28T06:41:30;101265.03;;;14.42;100.00
74524;BME280;63074;44.696;10.358;2022-10-28T06:43:55;101267.38;;;14.50;100.00
74524;BME280;63074;44.696;10.358;2022-10-28T06:46:21;101273.16;;;14.54;100.00
74524;BME280;63074;44.696;10.358;2022-10-28T06:48:47;101281.31;;;14.66;100.00
74524;BME280;63074;44.696;10.358;2022-10-28T06:51:13;101281.31;;;14.77;100.00
74524;BME280;63074;44.696;10.358;2022-10-28T06:53:38;101276.38;;;14.86;100.00
74524;BME280;63074;44.696;10.358;2022-10-28T06:56:04;101278.25;;;14.85;100.00
74524;BME280;63074;44.696;10.358;2022-10-28T06:58:29;101282.63;;;14.98;100.00
74524;BME280;63074;44.696;10.358;2022-10-28T07:00:55;101282.03;;;15.08;100.00
74524;BME280;63074;44.696;10.358;2022-10-28T07:03:21;101280.16;;;15.20;100.00
74524;BME280;63074;44.696;10.358;2022-10-28T07:05:47;101279.81;;;15.28;100.00
74524;BME280;63074;44.696;10.358;2022-10-28T07:08:14;101286.63;;;15.42;100.00
74524;BME280;63074;44.696;10.358;2022-10-28T07:10:41;101296.72;;;14.77;100.00
74524;BME280;63074;44.696;10.358;2022-10-28T07:13:06;101304.22;;;14.63;100.00
74524;BME280;63074;44.696;10.358;2022-10-28T07:15:31;101304.00;;;14.76;100.00
74524;BME280;63074;44.696;10.358;2022-10-28T07:17:57;101308.16;;;14.91;100.00
74524;BME280;63074;44.696;10.358;2022-10-28T07:20:25;101308.75;;;15.16;100.00
74524;BME280;63074;44.696;10.358;2022-10-28T07:23:01;101312.53;;;15.27;100.00
74524;BME280;63074;44.696;10.358;2022-10-28T07:25:28;101312.28;;;15.40;100.00
74524;BME280;63074;44.696;10.358;2022-10-28T07:27:56;101310.03;;;15.60;100.00
74524;BME280;63074;44.696;10.358;2022-10-28T07:30:22;101305.56;;;15.77;100.00
74524;BME280;63074;44.696;10.358;2022-10-28T07:32:47;101306.34;;;15.90;100.00
74524;BME280;63074;44.696;10.358;2022-10-28T07:35:13;101301.00;;;16.06;100.00
74524;BME280;63074;44.696;10.358;2022-10-28T07:37:38;101300.09;;;16.17;100.00
74524;BME280;63074;44.696;10.358;2022-10-28T07:40:04;101306.56;;;16.28;100.00
74524;BME280;63074;44.696;10.358;2022-10-28T07:42:32;101295.66;;;16.40;100.00
74524;BME280;63074;44.696;10.358;2022-10-28T07:44:57;101299.69;;;16.37;100.00
74524;BME280;63074;44.696;10.358;2022-10-28T07:47:25;101298.97;;;16.59;100.00
74524;BME280;63074;44.696;10.358;2022-10-28T07:49:51;101300.97;;;16.63;100.00
74524;BME280;63074;44.696;10.358;2022-10-28T07:52:18;101311.94;;;16.68;100.00
74524;BME280;63074;44.696;10.358;2022-10-28T07:54:44;101305.53;;;16.74;100.00
74524;BME280;63074;44.696;10.358;2022-10-28T07:57:09;101300.59;;;16.88;100.00
74524;BME280;63074;44.696;10.358;2022-10-28T07:59:35;101303.88;;;16.90;100.00
74524;BME280;63074;44.696;10.358;2022-10-28T08:02:00;101296.06;;;16.94;100.00
74524;BME280;63074;44.696;10.358;2022-10-28T08:04:28;101298.50;;;17.12;100.00
74524;BME280;63074;44.696;10.358;2022-10-28T08:06:54;101294.81;;;17.18;100.00
74524;BME280;63074;44.696;10.358;2022-10-28T08:09:19;101293.25;;;17.22;100.00
74524;BME280;63074;44.696;10.358;2022-10-28T08:11:44;101286.38;;;17.36;100.00
74524;BME280;63074;44.696;10.358;2022-10-28T08:14:10;101295.41;;;17.59;100.00
74524;BME280;63074;44.696;10.358;2022-10-28T08:16:35;101295.06;;;17.55;100.00
74524;BME280;63074;44.696;10.358;2022-10-28T08:19:00;101290.81;;;17.64;100.00
74524;BME280;63074;44.696;10.358;2022-10-28T08:21:26;101292.22;;;17.83;100.00
74524;BME280;63074;44.696;10.358;2022-10-28T08:23:53;101290.63;;;17.87;100.00
74524;BME280;63074;44.696;10.358;2022-10-28T08:26:19;101282.25;;;17.94;100.00
74524;BME280;63074;44.696;10.358;2022-10-28T08:28:44;101289.47;;;18.05;100.00
74524;BME280;63074;44.696;10.358;2022-10-28T08:31:10;101289.91;;;17.97;100.00
74524;BME280;63074;44.696;10.358;2022-10-28T08:33:38;101292.31;;;17.94;100.00
74524;BME280;63074;44.696;10.358;2022-10-28T08:36:06;101294.91;;;18.05;100.00
74524;BME280;63074;44.696;10.358;2022-10-28T08:38:32;101299.28;;;18.06;100.00
74524;BME280;63074;44.696;10.358;2022-10-28T08:48:56;101292.38;;;18.52;100.00
74524;BME280;63074;44.696;10.358;2022-10-28T08:51:35;101290.75;;;18.51;100.00
74524;BME280;63074;44.696;10.358;2022-10-28T08:54:06;101290.69;;;18.68;100.00
74524;BME280;63074;44.696;10.358;2022-10-28T08:56:39;101298.22;;;18.61;100.00
74524;BME280;63074;44.696;10.358;2022-10-28T08:59:12;101297.56;;;18.81;100.00
74524;BME280;63074;44.696;10.358;2022-10-28T09:01:48;101295.34;;;18.73;100.00
74524;BME280;63074;44.696;10.358;2022-10-28T09:06:50;101292.84;;;18.66;100.00
74524;BME280;63074;44.696;10.358;2022-10-28T09:09:20;101291.19;;;18.65;100.00
74524;BME280;63074;44.696;10.358;2022-10-28T09:12:01;101288.03;;;19.15;100.00
74524;BME280;63074;44.696;10.358;2022-10-28T09:15:06;101293.38;;;19.42;100.00
74524;BME280;63074;44.696;10.358;2022-10-28T09:17:48;101288.09;;;19.26;100.00
74524;BME280;63074;44.696;10.358;2022-10-28T09:20:20;101278.22;;;19.57;100.00
74524;BME280;63074;44.696;10.358;2022-10-28T09:22:57;101287.03;;;19.74;100.00
74524;BME280;63074;44.696;10.358;2022-10-28T09:25:33;101284.63;;;19.87;100.00
74524;BME280;63074;44.696;10.358;2022-10-28T09:36:28;101293.91;;;19.86;100.00
74524;BME280;63074;44.696;10.358;2022-10-28T09:38:57;101292.31;;;20.06;100.00
74524;BME280;63074;44.696;10.358;2022-10-28T09:41:30;101287.56;;;19.76;100.00
74524;BME280;63074;44.696;10.358;2022-10-28T09:46:28;101268.91;;;20.35;100.00
74524;BME280;63074;44.696;10.358;2022-10-28T09:48:58;101270.28;;;20.33;100.00
74524;BME280;63074;44.696;10.358;2022-10-28T09:52:00;101280.28;;;20.02;100.00
74524;BME280;63074;44.696;10.358;2022-10-28T09:54:33;101288.00;;;20.25;100.00
74524;BME280;63074;44.696;10.358;2022-10-28T09:57:02;101272.25;;;20.58;100.00
74524;BME280;63074;44.696;10.358;2022-10-28T09:59:28;101271.41;;;20.57;100.00
74524;BME280;63074;44.696;10.358;2022-10-28T10:01:53;101263.50;;;20.91;100.00
74524;BME280;63074;44.696;10.358;2022-10-28T10:04:21;101272.25;;;20.78;100.00
74524;BME280;63074;44.696;10.358;2022-10-28T10:06:51;101276.63;;;20.69;100.00
74524;BME280;63074;44.696;10.358;2022-10-28T10:09:23;101276.59;;;20.84;100.00
74524;BME280;63074;44.696;10.358;2022-10-28T10:11:52;101269.78;;;21.02;100.00
74524;BME280;63074;44.696;10.358;2022-10-28T10:14:28;101267.59;;;20.58;100.00
74524;BME280;63074;44.696;10.358;2022-10-28T10:16:59;101271.38;;;20.37;100.00
74524;BME280;63074;44.696;10.358;2022-10-28T10:19:25;101277.41;;;20.79;100.00
74524;BME280;63074;44.696;10.358;2022-10-28T10:21:52;101275.25;;;20.71;100.00
74524;BME280;63074;44.696;10.358;2022-10-28T10:24:26;101268.41;;;20.43;100.00
74524;BME280;63074;44.696;10.358;2022-10-28T10:26:53;101270.06;;;20.85;100.00
74524;BME280;63074;44.696;10.358;2022-10-28T10:29:19;101256.66;;;20.83;100.00
74524;BME280;63074;44.696;10.358;2022-10-28T10:31:46;101256.38;;;20.95;100.00
74524;BME280;63074;44.696;10.358;2022-10-28T10:34:23;101257.50;;;20.59;100.00
74524;BME280;63074;44.696;10.358;2022-10-28T10:36:50;101255.84;;;20.52;100.00
74524;BME280;63074;44.696;10.358;2022-10-28T10:39:22;101252.81;;;20.34;100.00
74524;BME280;63074;44.696;10.358;2022-10-28T10:41:51;101253.94;;;20.58;100.00
74524;BME280;63074;44.696;10.358;2022-10-28T10:49:26;101252.84;;;20.95;100.00
74524;BME280;63074;44.696;10.358;2022-10-28T10:51:56;101240.00;;;21.05;100.00
74524;BME280;63074;44.696;10.358;2022-10-28T10:54:24;101240.53;;;21.07;100.00
74524;BME280;63074;44.696;10.358;2022-10-28T10:56:50;101244.38;;;20.81;100.00
74524;BME280;63074;44.696;10.358;2022-10-28T10:59:28;101232.94;;;20.79;100.00
74524;BME280;63074;44.696;10.358;2022-10-28T11:01:56;101237.81;;;20.87;100.00
74524;BME280;63074;44.696;10.358;2022-10-28T11:04:25;101235.91;;;21.03;100.00
74524;BME280;63074;44.696;10.358;2022-10-28T11:06:53;101233.13;;;21.33;100.00
74524;BME280;63074;44.696;10.358;2022-10-28T11:11:45;101229.28;;;21.29;100.00
74524;BME280;63074;44.696;10.358;2022-10-28T11:16:49;101226.72;;;21.58;100.00
74524;BME280;63074;44.696;10.358;2022-10-28T11:19:39;101219.94;;;22.00;100.00
74524;BME280;63074;44.696;10.358;2022-10-28T11:23:24;101210.94;;;22.38;100.00
74524;BME280;63074;44.696;10.358;2022-10-28T11:33:38;101201.94;;;22.96;100.00
74524;BME280;63074;44.696;10.358;2022-10-28T11:39:09;101191.59;;;22.87;100.00
74524;BME280;63074;44.696;10.358;2022-10-28T11:41:50;101196.13;;;23.02;100.00
74524;BME280;63074;44.696;10.358;2022-10-28T11:55:21;101179.09;;;28.65;70.81
74524;BME280;63074;44.696;10.358;2022-10-28T12:06:15;101180.81;;;32.32;50.26
74524;BME280;63074;44.696;10.358;2022-10-28T12:11:51;101169.88;;;29.37;56.35
74524;BME280;63074;44.696;10.358;2022-10-28T12:17:30;101168.94;;;32.07;48.65
74524;BME280;63074;44.696;10.358;2022-10-28T12:20:04;101161.25;;;32.88;45.79
74524;BME280;63074;44.696;10.358;2022-10-28T12:22:53;101160.19;;;34.17;44.34
74524;BME280;63074;44.696;10.358;2022-10-28T12:25:26;101161.19;;;30.30;52.34
74524;BME280;63074;44.696;10.358;2022-10-28T12:27:58;101155.81;;;31.40;51.20
74524;BME280;63074;44.696;10.358;2022-10-28T12:30:33;101143.97;;;30.94;49.82
74524;BME280;63074;44.696;10.358;2022-10-28T12:33:06;101138.88;;;29.73;55.08
74524;BME280;63074;44.696;10.358;2022-10-28T12:35:38;101134.13;;;32.85;48.83
74524;BME280;63074;44.696;10.358;2022-10-28T12:41:25;101135.28;;;29.72;53.46
74524;BME280;63074;44.696;10.358;2022-10-28T12:44:13;101127.81;;;28.76;59.56
74524;BME280;63074;44.696;10.358;2022-10-28T12:49:30;101127.63;;;28.89;56.13
74524;BME280;63074;44.696;10.358;2022-10-28T12:52:07;101120.34;;;28.76;56.93
74524;BME280;63074;44.696;10.358;2022-10-28T12:54:45;101121.97;;;29.86;54.56
74524;BME280;63074;44.696;10.358;2022-10-28T12:57:15;101121.53;;;33.07;46.16
74524;BME280;63074;44.696;10.358;2022-10-28T12:59:58;101125.56;;;35.96;38.30
74524;BME280;63074;44.696;10.358;2022-10-28T13:02:34;101121.22;;;31.01;47.66
74524;BME280;63074;44.696;10.358;2022-10-28T13:05:03;101116.66;;;33.19;44.76
74524;BME280;63074;44.696;10.358;2022-10-28T13:07:59;101116.59;;;33.00;43.75
74524;BME280;63074;44.696;10.358;2022-10-28T13:13:51;101120.28;;;28.55;54.32
74524;BME280;63074;44.696;10.358;2022-10-28T13:19:41;101107.34;;;28.68;55.66
74524;BME280;63074;44.696;10.358;2022-10-28T13:24:53;101107.59;;;27.16;61.95
74524;BME280;63074;44.696;10.358;2022-10-28T13:27:22;101101.25;;;26.37;64.67
74524;BME280;63074;44.696;10.358;2022-10-28T13:29:51;101096.13;;;24.86;72.15
74524;BME280;63074;44.696;10.358;2022-10-28T13:32:34;101097.19;;;26.34;66.49
74524;BME280;63074;44.696;10.358;2022-10-28T13:35:10;101085.78;;;26.05;68.69
74524;BME280;63074;44.696;10.358;2022-10-28T13:37:37;101084.25;;;25.68;70.66
74524;BME280;63074;44.696;10.358;2022-10-28T13:40:04;101091.53;;;24.08;76.38
74524;BME280;63074;44.696;10.358;2022-10-28T13:42:44;101082.19;;;24.55;78.71
74524;BME280;63074;44.696;10.358;2022-10-28T13:45:46;101085.59;;;25.43;77.36
74524;BME280;63074;44.696;10.358;2022-10-28T13:58:58;101088.81;;;25.58;78.47
74524;BME280;63074;44.696;10.358;2022-10-28T14:06:46;101084.16;;;23.52;86.53
74524;BME280;63074;44.696;10.358;2022-10-28T14:09:21;101080.94;;;24.34;84.92
74524;BME280;63074;44.696;10.358;2022-10-28T14:12:16;101089.34;;;24.97;81.11
74524;BME280;63074;44.696;10.358;2022-10-28T14:14:59;101078.97;;;24.80;81.61
74524;BME280;63074;44.696;10.358;2022-10-28T14:17:37;101076.97;;;24.40;83.46
74524;BME280;63074;44.696;10.358;2022-10-28T14:20:17;101085.06;;;25.05;79.83
74524;BME280;63074;44.696;10.358;2022-10-28T14:22:45;101082.63;;;25.67;76.59
74524;BME280;63074;44.696;10.358;2022-10-28T14:36:24;101096.50;;;26.60;71.34
74524;BME280;63074;44.696;10.358;2022-10-28T14:47:01;101080.63;;;24.35;81.11
74524;BME280;63074;44.696;10.358;2022-10-28T14:49:33;101082.56;;;23.46;83.85
74524;BME280;63074;44.696;10.358;2022-10-28T14:52:09;101087.38;;;23.59;85.63
74524;BME280;63074;44.696;10.358;2022-10-28T14:54:46;101083.25;;;24.27;82.81
74524;BME280;63074;44.696;10.358;2022-10-28T14:57:15;101078.19;;;24.34;82.29
74524;BME280;63074;44.696;10.358;2022-10-28T14:59:48;101082.44;;;25.49;77.71
74524;BME280;63074;44.696;10.358;2022-10-28T15:02:18;101087.34;;;26.42;73.55
74524;BME280;63074;44.696;10.358;2022-10-28T15:04:46;101078.41;;;26.14;73.08
74524;BME280;63074;44.696;10.358;2022-10-28T15:07:17;101079.75;;;24.67;79.22
74524;BME280;63074;44.696;10.358;2022-10-28T15:09:45;101078.53;;;24.13;81.61
74524;BME280;63074;44.696;10.358;2022-10-28T15:12:15;101071.34;;;23.66;84.35
74524;BME280;63074;44.696;10.358;2022-10-28T15:14:51;101082.31;;;23.99;82.67
74524;BME280;63074;44.696;10.358;2022-10-28T15:32:32;101085.56;;;22.59;93.82